sensor_id;sensor_type;location;lat;lon;timestamp;pressure;altitude;pressure_sealevel;temperature;humidity
12358;BME280;6243;51.244;6.774;2024-01-27T00:02:17;115150.97;;;-141.28;42.24
12358;BME280;6243;51.244;6.774;2024-01-27T00:04:43;115150.97;;;-141.28;42.33
12358;BME280;6243;51.244;6.774;2024-01-27T00:07:08;115150.97;;;-141.28;42.30
12358;BME280;6243;51.244;6.774;2024-01-27T00:09:34;115150.97;;;-141.28;42.22
12358;BME280;6243;51.244;6.774;2024-01-27T00:11:59;115150.97;;;-141.28;41.98
12358;BME280;6243;51.244;6.774;2024-01-27T00:14:26;115150.97;;;-141.28;42.15
12358;BME280;6243;51.244;6.774;2024-01-27T00:16:52;115150.97;;;-141.28;42.07
12358;BME280;6243;51.244;6.774;2024-01-27T00:19:17;115150.97;;;-141.28;42.06
12358;BME280;6243;51.244;6.774;2024-01-27T00:21:43;115150.97;;;-141.28;42.10
12358;BME280;6243;51.244;6.774;2024-01-27T00:24:08;115150.97;;;-141.28;42.01
12358;BME280;6243;51.244;6.774;2024-01-27T00:26:34;115150.97;;;-141.28;42.00
12358;BME280;6243;51.244;6.774;2024-01-27T00:28:59;115150.97;;;-141.28;41.99
12358;BME280;6243;51.244;6.774;2024-01-27T00:31:26;115150.97;;;-141.28;41.94
12358;BME280;6243;51.244;6.774;2024-01-27T00:33:52;115150.97;;;-141.28;42.04
12358;BME280;6243;51.244;6.774;2024-01-27T00:36:17;115150.97;;;-141.28;41.98
12358;BME280;6243;51.244;6.774;2024-01-27T00:38:43;115150.97;;;-141.28;42.08
12358;BME280;6243;51.244;6.774;2024-01-27T00:41:08;115150.97;;;-141.28;42.05
12358;BME280;6243;51.244;6.774;2024-01-27T00:43:34;115150.97;;;-141.28;42.23
12358;BME280;6243;51.244;6.774;2024-01-27T00:45:59;115150.97;;;-141.28;42.46
12358;BME280;6243;51.244;6.774;2024-01-27T00:48:26;115150.97;;;-141.28;42.07
12358;BME280;6243;51.244;6.774;2024-01-27T00:50:51;115150.97;;;-141.28;42.55
12358;BME280;6243;51.244;6.774;2024-01-27T00:53:17;115150.97;;;-141.28;42.64
12358;BME280;6243;51.244;6.774;2024-01-27T00:55:42;115150.97;;;-141.28;42.47
12358;BME280;6243;51.244;6.774;2024-01-27T00:58:08;115150.97;;;-141.28;42.64
12358;BME280;6243;51.244;6.774;2024-01-27T01:00:33;115150.97;;;-141.28;42.57
12358;BME280;6243;51.244;6.774;2024-01-27T01:02:59;115150.97;;;-141.28;42.33
12358;BME280;6243;51.244;6.774;2024-01-27T01:05:26;115150.97;;;-141.28;42.41
12358;BME280;6243;51.244;6.774;2024-01-27T01:07:51;115150.97;;;-141.28;42.51
12358;BME280;6243;51.244;6.774;2024-01-27T01:10:17;115150.97;;;-141.28;42.48
12358;BME280;6243;51.244;6.774;2024-01-27T01:12:42;115150.97;;;-141.28;42.48
12358;BME280;6243;51.244;6.774;2024-01-27T01:15:08;115150.97;;;-141.28;42.46
12358;BME280;6243;51.244;6.774;2024-01-27T01:17:34;115150.97;;;-141.28;42.45
12358;BME280;6243;51.244;6.774;2024-01-27T01:19:59;115150.97;;;-141.28;42.35
12358;BME280;6243;51.244;6.774;2024-01-27T01:22:26;115150.97;;;-141.28;42.08
12358;BME280;6243;51.244;6.774;2024-01-27T01:24:52;115150.97;;;-141.28;42.10
12358;BME280;6243;51.244;6.774;2024-01-27T01:27:17;115150.97;;;-141.28;42.13
12358;BME280;6243;51.244;6.774;2024-01-27T01:29:43;115150.97;;;-141.28;42.18
12358;BME280;6243;51.244;6.774;2024-01-27T01:32:08;115150.97;;;-141.28;42.34
12358;BME280;6243;51.244;6.774;2024-01-27T01:34:34;115150.97;;;-141.28;42.53
12358;BME280;6243;51.244;6.774;2024-01-27T01:36:59;115150.97;;;-141.28;42.53
12358;BME280;6243;51.244;6.774;2024-01-27T01:39:26;115150.97;;;-141.28;42.49
12358;BME280;6243;51.244;6.774;2024-01-27T01:41:52;115150.97;;;-141.28;42.79
12358;BME280;6243;51.244;6.774;2024-01-27T01:44:17;115150.97;;;-141.28;42.50
12358;BME280;6243;51.244;6.774;2024-01-27T01:46:43;115150.97;;;-141.28;42.82
12358;BME280;6243;51.244;6.774;2024-01-27T01:49:08;115150.97;;;-141.28;42.58
12358;BME280;6243;51.244;6.774;2024-01-27T01:51:34;115150.97;;;-141.28;42.61
12358;BME280;6243;51.244;6.774;2024-01-27T01:54:00;115150.97;;;-141.28;42.96
12358;BME280;6243;51.244;6.774;2024-01-27T01:56:27;115150.97;;;-141.28;42.65
12358;BME280;6243;51.244;6.774;2024-01-27T01:58:53;115150.97;;;-141.28;42.91
12358;BME280;6243;51.244;6.774;2024-01-27T02:01:19;115150.97;;;-141.28;42.58
12358;BME280;6243;51.244;6.774;2024-01-27T02:03:51;115150.97;;;-141.28;42.92
12358;BME280;6243;51.244;6.774;2024-01-27T02:06:17;115150.97;;;-141.28;42.79
12358;BME280;6243;51.244;6.774;2024-01-27T02:08:42;115150.97;;;-141.28;42.61
12358;BME280;6243;51.244;6.774;2024-01-27T02:11:08;115150.97;;;-141.28;42.46
12358;BME280;6243;51.244;6.774;2024-01-27T02:13:35;115150.97;;;-141.28;42.69
12358;BME280;6243;51.244;6.774;2024-01-27T02:16:00;115150.97;;;-141.28;42.56
12358;BME280;6243;51.244;6.774;2024-01-27T02:18:26;115150.97;;;-141.28;42.73
12358;BME280;6243;51.244;6.774;2024-01-27T02:20:51;115150.97;;;-141.28;42.93
12358;BME280;6243;51.244;6.774;2024-01-27T02:23:17;115150.97;;;-141.28;43.29
12358;BME280;6243;51.244;6.774;2024-01-27T02:25:44;115150.97;;;-141.28;42.94
12358;BME280;6243;51.244;6.774;2024-01-27T02:28:09;115150.97;;;-141.28;43.13
12358;BME280;6243;51.244;6.774;2024-01-27T02:30:35;115150.97;;;-141.28;42.94
12358;BME280;6243;51.244;6.774;2024-01-27T02:33:01;115150.97;;;-141.28;43.11
12358;BME280;6243;51.244;6.774;2024-01-27T02:35:27;115150.97;;;-141.28;43.09
12358;BME280;6243;51.244;6.774;2024-01-27T02:37:52;115150.97;;;-141.28;42.76
12358;BME280;6243;51.244;6.774;2024-01-27T02:40:18;115150.97;;;-141.28;42.74
12358;BME280;6243;51.244;6.774;2024-01-27T02:42:45;115150.97;;;-141.28;42.81
12358;BME280;6243;51.244;6.774;2024-01-27T02:45:10;115150.97;;;-141.28;43.01
12358;BME280;6243;51.244;6.774;2024-01-27T02:47:36;115150.97;;;-141.28;42.62
12358;BME280;6243;51.244;6.774;2024-01-27T02:50:02;115150.97;;;-141.28;42.66
12358;BME280;6243;51.244;6.774;2024-01-27T02:52:27;115150.97;;;-141.28;42.71
12358;BME280;6243;51.244;6.774;2024-01-27T02:54:53;115150.97;;;-141.28;42.71
12358;BME280;6243;51.244;6.774;2024-01-27T02:57:18;115150.97;;;-141.28;42.45
12358;BME280;6243;51.244;6.774;2024-01-27T02:59:46;115150.97;;;-141.28;42.52
12358;BME280;6243;51.244;6.774;2024-01-27T03:02:12;115150.97;;;-141.28;42.95
12358;BME280;6243;51.244;6.774;2024-01-27T03:04:37;115150.97;;;-141.28;43.19
12358;BME280;6243;51.244;6.774;2024-01-27T03:07:03;115150.97;;;-141.28;43.19
12358;BME280;6243;51.244;6.774;2024-01-27T03:09:28;115150.97;;;-141.28;43.42
12358;BME280;6243;51.244;6.774;2024-01-27T03:11:54;115150.97;;;-141.28;42.92
12358;BME280;6243;51.244;6.774;2024-01-27T03:14:19;115150.97;;;-141.28;43.24
12358;BME280;6243;51.244;6.774;2024-01-27T03:16:46;115150.97;;;-141.28;43.29
12358;BME280;6243;51.244;6.774;2024-01-27T03:19:12;115150.97;;;-141.28;43.05
12358;BME280;6243;51.244;6.774;2024-01-27T03:21:37;115150.97;;;-141.28;43.13
12358;BME280;6243;51.244;6.774;2024-01-27T03:24:03;115150.97;;;-141.28;43.19
12358;BME280;6243;51.244;6.774;2024-01-27T03:26:29;115150.97;;;-141.28;43.22
12358;BME280;6243;51.244;6.774;2024-01-27T03:28:54;115150.97;;;-141.28;43.22
12358;BME280;6243;51.244;6.774;2024-01-27T03:31:20;115150.97;;;-141.28;43.21
12358;BME280;6243;51.244;6.774;2024-01-27T03:33:47;115150.97;;;-141.28;43.36
12358;BME280;6243;51.244;6.774;2024-01-27T03:36:13;115150.97;;;-141.28;43.18
12358;BME280;6243;51.244;6.774;2024-01-27T03:38:39;115150.97;;;-141.28;43.69
12358;BME280;6243;51.244;6.774;2024-01-27T03:41:05;115150.97;;;-141.28;43.82
12358;BME280;6243;51.244;6.774;2024-01-27T03:43:31;115150.97;;;-141.28;43.40
12358;BME280;6243;51.244;6.774;2024-01-27T03:45:56;115150.97;;;-141.28;43.15
12358;BME280;6243;51.244;6.774;2024-01-27T03:48:22;115150.97;;;-141.28;43.32
12358;BME280;6243;51.244;6.774;2024-01-27T03:50:49;115150.97;;;-141.28;43.72
12358;BME280;6243;51.244;6.774;2024-01-27T03:53:14;115150.97;;;-141.28;43.58
12358;BME280;6243;51.244;6.774;2024-01-27T03:55:40;115150.97;;;-141.28;43.90
12358;BME280;6243;51.244;6.774;2024-01-27T03:58:05;115150.97;;;-141.28;43.64
12358;BME280;6243;51.244;6.774;2024-01-27T04:00:31;115150.97;;;-141.28;43.70
12358;BME280;6243;51.244;6.774;2024-01-27T04:02:56;115150.97;;;-141.28;43.63
12358;BME280;6243;51.244;6.774;2024-01-27T04:05:22;115150.97;;;-141.28;43.55
12358;BME280;6243;51.244;6.774;2024-01-27T04:07:49;115150.97;;;-141.28;43.66
12358;BME280;6243;51.244;6.774;2024-01-27T04:10:14;115150.97;;;-141.28;43.63
12358;BME280;6243;51.244;6.774;2024-01-27T04:12:40;115150.97;;;-141.28;43.62
12358;BME280;6243;51.244;6.774;2024-01-27T04:15:08;115150.97;;;-141.28;43.65
12358;BME280;6243;51.244;6.774;2024-01-27T04:17:33;115150.97;;;-141.28;43.34
12358;BME280;6243;51.244;6.774;2024-01-27T04:19:59;115150.97;;;-141.28;43.53
12358;BME280;6243;51.244;6.774;2024-01-27T04:22:24;115150.97;;;-141.28;43.63
12358;BME280;6243;51.244;6.774;2024-01-27T04:24:51;115150.97;;;-141.28;43.66
12358;BME280;6243;51.244;6.774;2024-01-27T04:27:17;115150.97;;;-141.28;43.94
12358;BME280;6243;51.244;6.774;2024-01-27T04:29:42;115150.97;;;-141.28;43.60
12358;BME280;6243;51.244;6.774;2024-01-27T04:32:08;115150.97;;;-141.28;43.93
12358;BME280;6243;51.244;6.774;2024-01-27T04:34:33;115150.97;;;-141.28;43.97
12358;BME280;6243;51.244;6.774;2024-01-27T04:36:58;115150.97;;;-141.28;43.76
12358;BME280;6243;51.244;6.774;2024-01-27T04:39:24;115150.97;;;-141.28;43.60
12358;BME280;6243;51.244;6.774;2024-01-27T04:41:51;115150.97;;;-141.28;44.10
12358;BME280;6243;51.244;6.774;2024-01-27T04:44:17;115150.97;;;-141.28;43.56
12358;BME280;6243;51.244;6.774;2024-01-27T04:46:42;115150.97;;;-141.28;43.69
12358;BME280;6243;51.244;6.774;2024-01-27T04:49:08;115150.97;;;-141.28;43.95
12358;BME280;6243;51.244;6.774;2024-01-27T04:51:33;115150.97;;;-141.28;44.18
12358;BME280;6243;51.244;6.774;2024-01-27T04:53:59;115150.97;;;-141.28;43.92
12358;BME280;6243;51.244;6.774;2024-01-27T04:56:24;115150.97;;;-141.28;44.41
12358;BME280;6243;51.244;6.774;2024-01-27T04:58:51;115150.97;;;-141.28;43.95
12358;BME280;6243;51.244;6.774;2024-01-27T05:01:16;115150.97;;;-141.28;44.32
12358;BME280;6243;51.244;6.774;2024-01-27T05:03:42;115150.97;;;-141.28;44.06
12358;BME280;6243;51.244;6.774;2024-01-27T05:06:08;115150.97;;;-141.28;43.75
12358;BME280;6243;51.244;6.774;2024-01-27T05:08:33;115150.97;;;-141.28;43.95
12358;BME280;6243;51.244;6.774;2024-01-27T05:10:59;115150.97;;;-141.28;43.58
12358;BME280;6243;51.244;6.774;2024-01-27T05:13:24;115150.97;;;-141.28;43.71
12358;BME280;6243;51.244;6.774;2024-01-27T05:15:51;115150.97;;;-141.28;43.50
12358;BME280;6243;51.244;6.774;2024-01-27T05:18:16;115150.97;;;-141.28;43.73
12358;BME280;6243;51.244;6.774;2024-01-27T05:20:42;115150.97;;;-141.28;43.70
12358;BME280;6243;51.244;6.774;2024-01-27T05:23:07;115150.97;;;-141.28;43.64
12358;BME280;6243;51.244;6.774;2024-01-27T05:25:33;115150.97;;;-141.28;43.59
12358;BME280;6243;51.244;6.774;2024-01-27T05:27:58;115150.97;;;-141.28;43.59
12358;BME280;6243;51.244;6.774;2024-01-27T05:30:24;115150.97;;;-141.28;43.63
12358;BME280;6243;51.244;6.774;2024-01-27T05:32:51;115150.97;;;-141.28;43.64
12358;BME280;6243;51.244;6.774;2024-01-27T05:35:16;115150.97;;;-141.28;43.83
12358;BME280;6243;51.244;6.774;2024-01-27T05:37:42;115150.97;;;-141.28;43.45
12358;BME280;6243;51.244;6.774;2024-01-27T05:40:08;115150.97;;;-141.28;43.72
12358;BME280;6243;51.244;6.774;2024-01-27T05:42:33;115150.97;;;-141.28;44.22
12358;BME280;6243;51.244;6.774;2024-01-27T05:44:59;115150.97;;;-141.28;43.88
12358;BME280;6243;51.244;6.774;2024-01-27T05:47:24;115150.97;;;-141.28;43.98
12358;BME280;6243;51.244;6.774;2024-01-27T05:49:51;115150.97;;;-141.28;43.92
12358;BME280;6243;51.244;6.774;2024-01-27T05:52:17;115150.97;;;-141.28;43.79
12358;BME280;6243;51.244;6.774;2024-01-27T05:54:42;115150.97;;;-141.28;43.81
12358;BME280;6243;51.244;6.774;2024-01-27T05:57:08;115150.97;;;-141.28;43.82
12358;BME280;6243;51.244;6.774;2024-01-27T05:59:33;115150.97;;;-141.28;44.22
12358;BME280;6243;51.244;6.774;2024-01-27T06:01:59;115150.97;;;-141.28;44.14
12358;BME280;6243;51.244;6.774;2024-01-27T06:04:24;115150.97;;;-141.28;44.20
12358;BME280;6243;51.244;6.774;2024-01-27T06:06:51;115150.97;;;-141.28;43.89
12358;BME280;6243;51.244;6.774;2024-01-27T06:09:17;115150.97;;;-141.28;43.99
12358;BME280;6243;51.244;6.774;2024-01-27T06:11:42;115150.97;;;-141.28;44.10
12358;BME280;6243;51.244;6.774;2024-01-27T06:14:08;115150.97;;;-141.28;44.12
12358;BME280;6243;51.244;6.774;2024-01-27T06:16:33;115150.97;;;-141.28;44.10
12358;BME280;6243;51.244;6.774;2024-01-27T06:18:59;115150.97;;;-141.28;44.17
12358;BME280;6243;51.244;6.774;2024-01-27T06:21:25;115150.97;;;-141.28;44.45
12358;BME280;6243;51.244;6.774;2024-01-27T06:23:51;115150.97;;;-141.28;44.20
12358;BME280;6243;51.244;6.774;2024-01-27T06:26:17;115150.97;;;-141.28;44.22
12358;BME280;6243;51.244;6.774;2024-01-27T06:28:42;115150.97;;;-141.28;43.98
12358;BME280;6243;51.244;6.774;2024-01-27T06:31:08;115150.97;;;-141.28;44.70
12358;BME280;6243;51.244;6.774;2024-01-27T06:33:34;115150.97;;;-141.28;44.29
12358;BME280;6243;51.244;6.774;2024-01-27T06:36:00;115150.97;;;-141.28;44.60
12358;BME280;6243;51.244;6.774;2024-01-27T06:38:26;115150.97;;;-141.28;44.35
12358;BME280;6243;51.244;6.774;2024-01-27T06:40:53;115150.97;;;-141.28;44.61
12358;BME280;6243;51.244;6.774;2024-01-27T06:43:19;115150.97;;;-141.28;44.46
12358;BME280;6243;51.244;6.774;2024-01-27T06:45:44;115150.97;;;-141.28;44.75
12358;BME280;6243;51.244;6.774;2024-01-27T06:48:10;115150.97;;;-141.28;44.58
12358;BME280;6243;51.244;6.774;2024-01-27T06:50:35;115150.97;;;-141.28;44.00
12358;BME280;6243;51.244;6.774;2024-01-27T06:53:02;115150.97;;;-141.28;44.34
12358;BME280;6243;51.244;6.774;2024-01-27T06:55:28;115150.97;;;-141.28;44.45
12358;BME280;6243;51.244;6.774;2024-01-27T06:57:54;115150.97;;;-141.28;44.20
12358;BME280;6243;51.244;6.774;2024-01-27T07:00:20;115150.97;;;-141.28;44.66
12358;BME280;6243;51.244;6.774;2024-01-27T07:02:46;115150.97;;;-141.28;44.43
12358;BME280;6243;51.244;6.774;2024-01-27T07:05:11;115150.97;;;-141.28;44.34
12358;BME280;6243;51.244;6.774;2024-01-27T07:07:37;115150.97;;;-141.28;44.48
12358;BME280;6243;51.244;6.774;2024-01-27T07:10:03;115150.97;;;-141.28;44.93
12358;BME280;6243;51.244;6.774;2024-01-27T07:12:28;115150.97;;;-141.28;44.55
12358;BME280;6243;51.244;6.774;2024-01-27T07:14:55;115150.97;;;-141.28;44.75
12358;BME280;6243;51.244;6.774;2024-01-27T07:17:21;115150.97;;;-141.28;44.30
12358;BME280;6243;51.244;6.774;2024-01-27T07:19:46;115150.97;;;-141.28;44.55
12358;BME280;6243;51.244;6.774;2024-01-27T07:22:12;115150.97;;;-141.28;44.50
12358;BME280;6243;51.244;6.774;2024-01-27T07:24:37;115150.97;;;-141.28;44.32
12358;BME280;6243;51.244;6.774;2024-01-27T07:27:03;115150.97;;;-141.28;44.13
12358;BME280;6243;51.244;6.774;2024-01-27T07:29:29;115150.97;;;-141.28;44.65
12358;BME280;6243;51.244;6.774;2024-01-27T07:31:56;115150.97;;;-141.28;44.62
12358;BME280;6243;51.244;6.774;2024-01-27T07:34:21;115150.97;;;-141.28;44.74
12358;BME280;6243;51.244;6.774;2024-01-27T07:36:47;115150.97;;;-141.28;44.66
12358;BME280;6243;51.244;6.774;2024-01-27T07:39:12;115150.97;;;-141.28;45.08
12358;BME280;6243;51.244;6.774;2024-01-27T07:41:38;115150.97;;;-141.28;44.89
12358;BME280;6243;51.244;6.774;2024-01-27T07:44:09;115150.97;;;-141.28;44.55
12358;BME280;6243;51.244;6.774;2024-01-27T07:46:35;115150.97;;;-141.28;44.93
12358;BME280;6243;51.244;6.774;2024-01-27T07:49:02;115150.97;;;-141.28;45.34
12358;BME280;6243;51.244;6.774;2024-01-27T07:51:28;115150.97;;;-141.28;45.51
12358;BME280;6243;51.244;6.774;2024-01-27T07:53:53;115150.97;;;-141.28;45.39
12358;BME280;6243;51.244;6.774;2024-01-27T07:56:19;115150.97;;;-141.28;45.71
12358;BME280;6243;51.244;6.774;2024-01-27T07:58:44;115150.97;;;-141.28;45.59
12358;BME280;6243;51.244;6.774;2024-01-27T08:01:10;115150.97;;;-141.28;45.92
12358;BME280;6243;51.244;6.774;2024-01-27T08:03:39;115150.97;;;-141.28;46.04
12358;BME280;6243;51.244;6.774;2024-01-27T08:06:06;115150.97;;;-141.28;45.89
12358;BME280;6243;51.244;6.774;2024-01-27T08:08:32;115150.97;;;-141.28;46.34
12358;BME280;6243;51.244;6.774;2024-01-27T08:10:57;115150.97;;;-141.28;46.16
12358;BME280;6243;51.244;6.774;2024-01-27T08:13:23;115150.97;;;-141.28;46.21
12358;BME280;6243;51.244;6.774;2024-01-27T08:15:48;115150.97;;;-141.28;46.24
12358;BME280;6243;51.244;6.774;2024-01-27T08:18:14;115150.97;;;-141.28;45.97
12358;BME280;6243;51.244;6.774;2024-01-27T08:20:39;115150.97;;;-141.28;45.79
12358;BME280;6243;51.244;6.774;2024-01-27T08:23:06;115150.97;;;-141.28;45.32
12358;BME280;6243;51.244;6.774;2024-01-27T08:25:32;115150.97;;;-141.28;45.53
12358;BME280;6243;51.244;6.774;2024-01-27T08:27:57;115150.97;;;-141.28;45.52
12358;BME280;6243;51.244;6.774;2024-01-27T08:30:23;115150.97;;;-141.28;45.41
12358;BME280;6243;51.244;6.774;2024-01-27T08:32:48;115150.97;;;-141.28;45.23
12358;BME280;6243;51.244;6.774;2024-01-27T08:35:14;115150.97;;;-141.28;45.85
12358;BME280;6243;51.244;6.774;2024-01-27T08:37:39;115150.97;;;-141.28;45.71
12358;BME280;6243;51.244;6.774;2024-01-27T08:40:08;115150.97;;;-141.28;45.36
12358;BME280;6243;51.244;6.774;2024-01-27T08:42:33;115150.97;;;-141.28;45.42
12358;BME280;6243;51.244;6.774;2024-01-27T08:44:59;115150.97;;;-141.28;45.14
12358;BME280;6243;51.244;6.774;2024-01-27T08:47:24;115150.97;;;-141.28;44.90
12358;BME280;6243;51.244;6.774;2024-01-27T08:49:50;115150.97;;;-141.28;44.89
12358;BME280;6243;51.244;6.774;2024-01-27T08:52:15;115150.97;;;-141.28;44.89
12358;BME280;6243;51.244;6.774;2024-01-27T08:54:41;115150.97;;;-141.28;44.90
12358;BME280;6243;51.244;6.774;2024-01-27T08:57:08;115150.97;;;-141.28;44.70
12358;BME280;6243;51.244;6.774;2024-01-27T08:59:33;115150.97;;;-141.28;44.78
12358;BME280;6243;51.244;6.774;2024-01-27T09:01:59;115150.97;;;-141.28;44.22
12358;BME280;6243;51.244;6.774;2024-01-27T09:04:24;115150.97;;;-141.28;44.72
12358;BME280;6243;51.244;6.774;2024-01-27T09:06:50;115150.97;;;-141.28;44.40
12358;BME280;6243;51.244;6.774;2024-01-27T09:09:15;115150.97;;;-141.28;44.32
12358;BME280;6243;51.244;6.774;2024-01-27T09:11:41;115150.97;;;-141.28;44.53
12358;BME280;6243;51.244;6.774;2024-01-27T09:14:08;115150.97;;;-141.28;44.16
12358;BME280;6243;51.244;6.774;2024-01-27T09:16:33;115150.97;;;-141.28;44.46
12358;BME280;6243;51.244;6.774;2024-01-27T09:18:59;115150.97;;;-141.28;43.97
12358;BME280;6243;51.244;6.774;2024-01-27T09:21:24;115150.97;;;-141.28;44.43
12358;BME280;6243;51.244;6.774;2024-01-27T09:23:50;115150.97;;;-141.28;44.71
12358;BME280;6243;51.244;6.774;2024-01-27T09:26:15;115150.97;;;-141.28;44.35
12358;BME280;6243;51.244;6.774;2024-01-27T09:28:41;115150.97;;;-141.28;44.55
12358;BME280;6243;51.244;6.774;2024-01-27T09:31:09;115150.97;;;-141.28;44.39
12358;BME280;6243;51.244;6.774;2024-01-27T09:33:35;115150.97;;;-141.28;43.87
12358;BME280;6243;51.244;6.774;2024-01-27T09:36:00;115150.97;;;-141.28;43.95
12358;BME280;6243;51.244;6.774;2024-01-27T09:38:26;115150.97;;;-141.28;43.77
12358;BME280;6243;51.244;6.774;2024-01-27T09:40:51;115150.97;;;-141.28;43.55
12358;BME280;6243;51.244;6.774;2024-01-27T09:43:18;115150.97;;;-141.28;43.75
12358;BME280;6243;51.244;6.774;2024-01-27T09:45:45;115150.97;;;-141.28;43.63
12358;BME280;6243;51.244;6.774;2024-01-27T09:48:12;115150.97;;;-141.28;44.35
12358;BME280;6243;51.244;6.774;2024-01-27T09:50:39;115150.97;;;-141.28;43.84
12358;BME280;6243;51.244;6.774;2024-01-27T09:53:06;115150.97;;;-141.28;43.60
12358;BME280;6243;51.244;6.774;2024-01-27T09:55:31;115150.97;;;-141.28;43.35
12358;BME280;6243;51.244;6.774;2024-01-27T09:57:57;115150.97;;;-141.28;42.99
12358;BME280;6243;51.244;6.774;2024-01-27T10:00:23;115150.97;;;-141.28;42.94
12358;BME280;6243;51.244;6.774;2024-01-27T10:02:49;115150.97;;;-141.28;43.27
12358;BME280;6243;51.244;6.774;2024-01-27T10:05:17;115150.97;;;-141.28;42.96
12358;BME280;6243;51.244;6.774;2024-01-27T10:07:43;115150.97;;;-141.28;42.64
12358;BME280;6243;51.244;6.774;2024-01-27T10:10:08;115150.97;;;-141.28;42.64
12358;BME280;6243;51.244;6.774;2024-01-27T10:12:39;115150.97;;;-141.28;42.43
12358;BME280;6243;51.244;6.774;2024-01-27T10:15:06;115150.97;;;-141.28;42.10
12358;BME280;6243;51.244;6.774;2024-01-27T10:17:31;115150.97;;;-141.28;42.23
12358;BME280;6243;51.244;6.774;2024-01-27T10:20:00;115150.97;;;-141.28;41.85
12358;BME280;6243;51.244;6.774;2024-01-27T10:22:27;115150.97;;;-141.28;41.41
12358;BME280;6243;51.244;6.774;2024-01-27T10:24:53;115150.97;;;-141.28;41.45
12358;BME280;6243;51.244;6.774;2024-01-27T10:27:18;115150.97;;;-141.28;41.37
12358;BME280;6243;51.244;6.774;2024-01-27T10:29:51;115150.97;;;-141.28;41.57
12358;BME280;6243;51.244;6.774;2024-01-27T10:32:17;115150.97;;;-141.28;41.60
12358;BME280;6243;51.244;6.774;2024-01-27T10:34:42;115150.97;;;-141.28;41.47
12358;BME280;6243;51.244;6.774;2024-01-27T10:37:12;115150.97;;;-141.28;41.17
12358;BME280;6243;51.244;6.774;2024-01-27T10:39:38;115150.97;;;-141.28;41.55
12358;BME280;6243;51.244;6.774;2024-01-27T10:42:05;115150.97;;;-141.28;41.34
12358;BME280;6243;51.244;6.774;2024-01-27T10:44:31;115150.97;;;-141.28;41.12
12358;BME280;6243;51.244;6.774;2024-01-27T10:47:01;115150.97;;;-141.28;40.78
12358;BME280;6243;51.244;6.774;2024-01-27T10:49:28;115150.97;;;-141.28;40.74
12358;BME280;6243;51.244;6.774;2024-01-27T10:51:56;115150.97;;;-141.28;40.71
12358;BME280;6243;51.244;6.774;2024-01-27T10:54:24;115150.97;;;-141.28;41.02
12358;BME280;6243;51.244;6.774;2024-01-27T10:56:53;115150.97;;;-141.28;41.10
12358;BME280;6243;51.244;6.774;2024-01-27T10:59:21;115150.97;;;-141.28;40.89
12358;BME280;6243;51.244;6.774;2024-01-27T11:01:48;115150.97;;;-141.28;40.49
12358;BME280;6243;51.244;6.774;2024-01-27T11:04:14;115150.97;;;-141.28;40.05
12358;BME280;6243;51.244;6.774;2024-01-27T11:06:42;115150.97;;;-141.28;39.98
12358;BME280;6243;51.244;6.774;2024-01-27T11:09:08;115150.97;;;-141.28;39.96
12358;BME280;6243;51.244;6.774;2024-01-27T11:11:34;115150.97;;;-141.28;39.45
12358;BME280;6243;51.244;6.774;2024-01-27T11:14:02;115150.97;;;-141.28;39.69
12358;BME280;6243;51.244;6.774;2024-01-27T11:16:27;115150.97;;;-141.28;39.02
12358;BME280;6243;51.244;6.774;2024-01-27T11:18:53;115150.97;;;-141.28;38.96
12358;BME280;6243;51.244;6.774;2024-01-27T11:21:18;115150.97;;;-141.28;38.94
12358;BME280;6243;51.244;6.774;2024-01-27T11:23:44;115150.97;;;-141.28;38.85
12358;BME280;6243;51.244;6.774;2024-01-27T11:26:10;115150.97;;;-141.28;38.82
12358;BME280;6243;51.244;6.774;2024-01-27T11:28:36;115150.97;;;-141.28;38.66
12358;BME280;6243;51.244;6.774;2024-01-27T11:31:05;115150.97;;;-141.28;38.79
12358;BME280;6243;51.244;6.774;2024-01-27T11:33:30;115150.97;;;-141.28;38.56
12358;BME280;6243;51.244;6.774;2024-01-27T11:36:05;115150.97;;;-141.28;38.68
12358;BME280;6243;51.244;6.774;2024-01-27T11:38:31;115150.97;;;-141.28;39.22
12358;BME280;6243;51.244;6.774;2024-01-27T11:40:57;115150.97;;;-141.28;39.01
12358;BME280;6243;51.244;6.774;2024-01-27T11:43:23;115150.97;;;-141.28;39.09
12358;BME280;6243;51.244;6.774;2024-01-27T11:45:55;115150.97;;;-141.28;39.28
12358;BME280;6243;51.244;6.774;2024-01-27T11:48:22;115150.97;;;-141.28;39.07
12358;BME280;6243;51.244;6.774;2024-01-27T11:50:48;115150.97;;;-141.28;39.08
12358;BME280;6243;51.244;6.774;2024-01-27T11:53:13;115150.97;;;-141.28;39.01
12358;BME280;6243;51.244;6.774;2024-01-27T11:55:39;115150.97;;;-141.28;39.24
12358;BME280;6243;51.244;6.774;2024-01-27T11:58:04;115150.97;;;-141.28;39.04
12358;BME280;6243;51.244;6.774;2024-01-27T12:00:30;115150.97;;;-141.28;39.17
12358;BME280;6243;51.244;6.774;2024-01-27T12:02:56;115150.97;;;-141.28;39.35
12358;BME280;6243;51.244;6.774;2024-01-27T12:05:23;115150.97;;;-141.28;39.33
12358;BME280;6243;51.244;6.774;2024-01-27T12:07:48;115150.97;;;-141.28;39.68
12358;BME280;6243;51.244;6.774;2024-01-27T12:10:14;115150.97;;;-141.28;39.58
12358;BME280;6243;51.244;6.774;2024-01-27T12:12:40;115150.97;;;-141.28;39.27
12358;BME280;6243;51.244;6.774;2024-01-27T12:15:06;115150.97;;;-141.28;39.46
12358;BME280;6243;51.244;6.774;2024-01-27T12:17:31;115150.97;;;-141.28;39.51
12358;BME280;6243;51.244;6.774;2024-01-27T12:19:57;115150.97;;;-141.28;39.31
12358;BME280;6243;51.244;6.774;2024-01-27T12:22:25;115150.97;;;-141.28;39.27
12358;BME280;6243;51.244;6.774;2024-01-27T12:24:50;115150.97;;;-141.28;39.41
12358;BME280;6243;51.244;6.774;2024-01-27T12:27:16;115150.97;;;-141.28;39.37
12358;BME280;6243;51.244;6.774;2024-01-27T12:29:42;115150.97;;;-141.28;39.48
12358;BME280;6243;51.244;6.774;2024-01-27T12:32:08;115150.97;;;-141.28;39.53
12358;BME280;6243;51.244;6.774;2024-01-27T12:34:39;115150.97;;;-141.28;39.46